createdAt,value
2019-05-11T00:01:00.091Z,9.32
2019-05-11T00:03:29.325Z,9.29
2019-05-11T00:05:58.495Z,9.34
2019-05-11T00:08:27.721Z,9.31
2019-05-11T00:10:56.864Z,9.33
2019-05-11T00:13:26.027Z,9.27
2019-05-11T00:15:55.186Z,9.27
2019-05-11T00:18:24.369Z,9.26
2019-05-11T00:20:53.502Z,9.33
2019-05-11T00:23:22.745Z,9.33
2019-05-11T00:25:51.897Z,9.25
2019-05-11T00:28:21.240Z,9.22
2019-05-11T00:30:50.491Z,9.24
2019-05-11T00:33:19.809Z,9.16
2019-05-11T00:35:48.958Z,9.18
2019-05-11T00:38:18.179Z,9.12
2019-05-11T00:40:47.324Z,9.15
2019-05-11T00:43:16.485Z,9.22
2019-05-11T00:45:45.633Z,9.15
2019-05-11T00:48:14.828Z,9.15
2019-05-11T00:50:44.022Z,9.17
2019-05-11T00:53:13.260Z,9.04
2019-05-11T00:55:42.490Z,9.14
2019-05-11T00:58:11.650Z,9.02
2019-05-11T01:00:40.809Z,9.06
2019-05-11T01:03:10.071Z,9.05
2019-05-11T01:05:39.188Z,8.96
2019-05-11T01:08:08.412Z,8.96
2019-05-11T01:10:42.198Z,8.95
2019-05-11T01:13:08.504Z,9.07
2019-05-11T01:15:37.699Z,8.97
2019-05-11T01:18:06.798Z,8.89
2019-05-11T01:20:35.968Z,8.98
2019-05-11T01:23:05.098Z,8.94
2019-05-11T01:25:34.328Z,8.91
2019-05-11T01:28:03.487Z,8.93
2019-05-11T01:30:32.668Z,8.84
2019-05-11T01:33:01.806Z,8.81
2019-05-11T01:35:30.986Z,8.77
2019-05-11T01:38:00.146Z,8.82
2019-05-11T01:40:29.280Z,8.80
2019-05-11T01:42:58.453Z,8.85
2019-05-11T01:45:27.669Z,8.83
2019-05-11T01:47:56.781Z,8.87
2019-05-11T01:50:26.034Z,8.90
2019-05-11T01:52:55.163Z,8.92
2019-05-11T01:55:24.379Z,8.85
2019-05-11T01:57:53.569Z,8.79
2019-05-11T02:00:23.266Z,8.84
2019-05-11T02:02:52.558Z,8.81
2019-05-11T02:05:31.482Z,8.84
2019-05-11T02:08:02.241Z,8.89
2019-05-11T02:10:32.360Z,8.76
2019-05-11T02:13:01.560Z,8.77
2019-05-11T02:15:30.731Z,8.77
2019-05-11T02:18:00.021Z,8.64
2019-05-11T02:20:29.256Z,8.72
2019-05-11T02:22:58.453Z,8.76
2019-05-11T02:25:27.617Z,8.68
2019-05-11T02:27:56.796Z,8.73
2019-05-11T02:30:25.980Z,8.80
2019-05-11T02:32:55.143Z,8.72
2019-05-11T02:35:24.279Z,8.61
2019-05-11T02:37:53.452Z,8.61
2019-05-11T02:40:22.888Z,8.67
2019-05-11T02:42:52.088Z,8.58
2019-05-11T02:45:38.141Z,8.60
2019-05-11T02:48:07.255Z,8.63
2019-05-11T02:50:37.600Z,8.53
2019-05-11T02:53:06.867Z,8.44
2019-05-11T02:55:36.678Z,8.55
2019-05-11T02:58:08.039Z,8.42
2019-05-11T03:00:45.103Z,8.39
2019-05-11T03:03:14.306Z,8.35
2019-05-11T03:05:43.444Z,8.40
2019-05-11T03:08:12.626Z,8.47
2019-05-11T03:10:41.754Z,8.43
2019-05-11T03:13:10.912Z,8.47
2019-05-11T03:15:40.056Z,8.47
2019-05-11T03:18:09.351Z,8.46
2019-05-11T03:20:38.500Z,8.50
2019-05-11T03:23:07.656Z,8.52
2019-05-11T03:25:36.922Z,8.47
2019-05-11T03:28:06.100Z,8.45
2019-05-11T03:30:35.293Z,8.43
2019-05-11T03:33:04.578Z,8.45
2019-05-11T03:35:33.763Z,8.45
2019-05-11T03:38:02.941Z,8.48
2019-05-11T03:40:32.220Z,8.46
2019-05-11T03:43:01.564Z,8.43
2019-05-11T03:45:30.867Z,8.48
2019-05-11T03:48:00.063Z,8.47
2019-05-11T03:50:29.297Z,8.49
2019-05-11T03:52:58.576Z,8.42
2019-05-11T03:55:27.812Z,8.47
2019-05-11T03:57:57.050Z,8.48
2019-05-11T04:00:26.407Z,8.37
2019-05-11T04:02:55.587Z,8.43
2019-05-11T04:05:24.774Z,8.48
2019-05-11T04:07:53.943Z,8.45
2019-05-11T04:10:25.456Z,8.43
2019-05-11T04:12:54.014Z,8.45
2019-05-11T04:15:23.203Z,8.50
2019-05-11T04:17:52.462Z,8.46
2019-05-11T04:20:21.578Z,8.42
2019-05-11T04:22:50.814Z,8.43
2019-05-11T04:25:19.974Z,8.31
2019-05-11T04:27:49.238Z,8.40
2019-05-11T04:30:18.551Z,8.34
2019-05-11T04:32:47.728Z,8.32
2019-05-11T04:35:17.050Z,8.33
2019-05-11T04:37:46.250Z,8.34
2019-05-11T04:40:15.558Z,8.36
2019-05-11T04:42:55.256Z,8.28
2019-05-11T04:45:15.771Z,8.41
2019-05-11T04:47:44.997Z,8.34
2019-05-11T04:50:14.629Z,8.32
2019-05-11T04:52:43.932Z,8.37
2019-05-11T04:55:13.643Z,8.31
2019-05-11T04:57:42.846Z,8.34
2019-05-11T05:00:12.601Z,8.22
2019-05-11T05:02:41.963Z,8.24
2019-05-11T05:05:11.409Z,8.31
2019-05-11T05:07:47.635Z,8.27
2019-05-11T05:10:14.143Z,8.26
2019-05-11T05:12:50.818Z,8.24
2019-05-11T05:15:13.555Z,8.21
2019-05-11T05:17:42.876Z,8.26
2019-05-11T05:20:12.624Z,8.26
2019-05-11T05:22:41.844Z,8.20
2019-05-11T05:25:11.109Z,8.24
2019-05-11T05:27:40.456Z,8.25
2019-05-11T05:30:10.275Z,8.34
2019-05-11T05:32:39.648Z,8.31
2019-05-11T05:35:09.330Z,8.34
2019-05-11T05:37:38.838Z,8.35
2019-05-11T05:40:08.603Z,8.41
2019-05-11T05:42:37.844Z,8.45
2019-05-11T05:45:07.660Z,8.54
2019-05-11T05:47:36.990Z,8.55
2019-05-11T05:50:07.092Z,8.45
2019-05-11T05:52:36.423Z,8.42
2019-05-11T05:55:05.850Z,8.60
2019-05-11T05:57:35.186Z,8.63
2019-05-11T06:00:04.419Z,8.68
2019-05-11T06:02:33.612Z,8.70
2019-05-11T06:05:02.886Z,8.68
2019-05-11T06:07:32.146Z,8.68
2019-05-11T06:10:01.339Z,8.71
2019-05-11T06:12:30.707Z,8.84
2019-05-11T06:14:59.970Z,8.89
2019-05-11T06:17:29.168Z,8.82
2019-05-11T06:19:58.424Z,8.75
2019-05-11T06:22:27.644Z,8.84
2019-05-11T06:24:56.800Z,8.80
2019-05-11T06:27:26.086Z,8.77
2019-05-11T06:29:55.227Z,8.77
2019-05-11T06:32:24.454Z,8.79
2019-05-11T06:34:53.649Z,8.83
2019-05-11T06:37:22.856Z,8.88
2019-05-11T06:39:52.042Z,8.90
2019-05-11T06:42:21.313Z,8.87
2019-05-11T06:44:50.413Z,8.75
2019-05-11T06:47:19.625Z,8.77
2019-05-11T06:49:48.799Z,8.77
2019-05-11T06:52:17.993Z,8.83
2019-05-11T06:54:47.200Z,8.75
2019-05-11T06:57:16.430Z,8.90
2019-05-11T06:59:45.599Z,8.92
2019-05-11T07:02:14.722Z,8.97
2019-05-11T07:04:43.904Z,8.88
2019-05-11T07:07:13.166Z,8.84
2019-05-11T07:09:42.307Z,8.92
2019-05-11T07:12:11.711Z,8.95
2019-05-11T07:14:41.233Z,8.92
2019-05-11T07:17:10.472Z,8.99
2019-05-11T07:19:39.632Z,8.94
2019-05-11T07:22:08.885Z,9.08
2019-05-11T07:24:38.054Z,9.05
2019-05-11T07:27:07.228Z,8.95
2019-05-11T07:29:36.384Z,9.13
2019-05-11T07:32:16.602Z,9.20
2019-05-11T07:34:38.366Z,9.30
2019-05-11T07:37:08.228Z,9.63
2019-05-11T07:39:38.324Z,9.59
2019-05-11T07:42:07.829Z,9.58
2019-05-11T07:44:40.977Z,9.50
2019-05-11T07:47:08.080Z,9.48
2019-05-11T07:49:38.206Z,9.63
2019-05-11T07:52:07.905Z,9.80
2019-05-11T07:54:38.527Z,9.75
2019-05-11T07:57:08.022Z,9.71
2019-05-11T07:59:38.172Z,9.76
2019-05-11T08:02:08.897Z,9.73
2019-05-11T08:04:38.251Z,9.56
2019-05-11T08:07:07.785Z,9.41
2019-05-11T08:09:38.013Z,9.35
2019-05-11T08:12:08.887Z,9.24
2019-05-11T08:14:55.970Z,9.08
2019-05-11T08:17:09.171Z,9.19
2019-05-11T08:19:38.587Z,9.19
2019-05-11T08:22:08.599Z,9.19
2019-05-11T08:24:37.981Z,9.26
2019-05-11T08:27:08.388Z,9.13
2019-05-11T08:29:38.488Z,9.15
2019-05-11T08:32:08.303Z,9.10
2019-05-11T08:34:39.780Z,9.26
2019-05-11T08:37:09.023Z,9.49
2019-05-11T08:39:38.380Z,9.38
2019-05-11T08:42:08.725Z,9.39
2019-05-11T08:44:38.252Z,9.21
2019-05-11T08:47:08.518Z,9.12
2019-05-11T08:49:38.247Z,9.11
2019-05-11T08:52:08.122Z,8.96
2019-05-11T08:54:38.297Z,9.06
2019-05-11T08:57:08.246Z,9.05
2019-05-11T08:59:38.208Z,9.16
2019-05-11T09:02:08.162Z,9.30
2019-05-11T09:04:41.720Z,9.36
2019-05-11T09:07:09.126Z,9.57
2019-05-11T09:09:38.304Z,9.55
2019-05-11T09:12:07.951Z,9.53
2019-05-11T09:14:38.697Z,9.52
2019-05-11T09:17:08.142Z,9.52
2019-05-11T09:19:38.770Z,9.58
2019-05-11T09:22:08.486Z,9.44
2019-05-11T09:24:38.639Z,9.38
2019-05-11T09:27:08.854Z,9.47
2019-05-11T09:29:38.688Z,9.50
2019-05-11T09:32:08.795Z,9.49
2019-05-11T09:34:38.669Z,9.50
2019-05-11T09:37:08.078Z,9.46
2019-05-11T09:39:38.346Z,9.78
2019-05-11T09:42:07.908Z,9.66
2019-05-11T09:44:37.966Z,9.52
2019-05-11T09:47:08.369Z,9.42
2019-05-11T09:49:44.836Z,9.41
2019-05-11T09:52:08.581Z,9.71
2019-05-11T09:54:38.468Z,9.85
2019-05-11T09:57:08.478Z,10.12
2019-05-11T09:59:38.459Z,10.12
2019-05-11T10:02:08.123Z,10.07
2019-05-11T10:04:38.041Z,10.02
2019-05-11T10:07:08.960Z,10.29
2019-05-11T10:09:38.482Z,10.27
2019-05-11T10:12:08.287Z,10.59
2019-05-11T10:14:39.074Z,10.55
2019-05-11T10:17:09.579Z,10.40
2019-05-11T10:19:39.609Z,10.78
2019-05-11T10:22:08.871Z,10.93
2019-05-11T10:24:38.611Z,10.90
2019-05-11T10:27:08.533Z,11.01
2019-05-11T10:29:38.310Z,10.76
2019-05-11T10:32:08.063Z,10.60
2019-05-11T10:34:38.644Z,10.39
2019-05-11T10:37:08.590Z,10.54
2019-05-11T10:39:38.390Z,10.39
2019-05-11T10:42:08.639Z,10.61
2019-05-11T10:44:38.606Z,10.44
2019-05-11T10:47:08.248Z,10.13
2019-05-11T10:49:38.055Z,10.43
2019-05-11T10:52:09.679Z,10.63
2019-05-11T10:54:39.926Z,10.87
2019-05-11T10:57:09.224Z,10.79
2019-05-11T10:59:38.849Z,11.16
2019-05-11T11:02:08.181Z,11.26
2019-05-11T11:04:38.048Z,11.47
2019-05-11T11:07:07.811Z,11.12
2019-05-11T11:09:38.559Z,11.29
2019-05-11T11:12:08.366Z,11.19
2019-05-11T11:14:37.866Z,10.94
2019-05-11T11:17:08.719Z,10.60
2019-05-11T11:19:38.282Z,10.79
2019-05-11T11:22:30.213Z,10.71
2019-05-11T11:24:38.544Z,10.74
2019-05-11T11:27:10.783Z,10.75
2019-05-11T11:29:38.903Z,10.62
2019-05-11T11:32:08.210Z,10.26
2019-05-11T11:34:38.351Z,10.27
2019-05-11T11:37:08.344Z,10.27
2019-05-11T11:39:38.789Z,10.33
2019-05-11T11:42:08.661Z,10.21
2019-05-11T11:44:38.088Z,10.31
2019-05-11T11:47:08.674Z,9.92
2019-05-11T11:49:38.395Z,9.49
2019-05-11T11:52:08.301Z,9.74
2019-05-11T11:54:38.681Z,9.99
2019-05-11T11:57:08.748Z,10.00
2019-05-11T11:59:38.665Z,9.53
2019-05-11T12:02:08.624Z,9.35
2019-05-11T12:04:38.930Z,9.41
2019-05-11T12:07:08.712Z,9.08
2019-05-11T12:09:38.047Z,9.41
2019-05-11T12:12:08.342Z,9.34
2019-05-11T12:14:38.483Z,9.25
2019-05-11T12:17:11.051Z,9.47
2019-05-11T12:19:38.880Z,9.69
2019-05-11T12:22:08.712Z,10.16
2019-05-11T12:24:38.011Z,10.26
2019-05-11T12:27:07.835Z,9.79
2019-05-11T12:29:38.564Z,9.84
2019-05-11T12:32:11.538Z,9.87
2019-05-11T12:34:40.833Z,9.60
2019-05-11T12:37:10.175Z,9.75
2019-05-11T12:39:39.511Z,9.86
2019-05-11T12:42:08.980Z,9.65
2019-05-11T12:44:38.760Z,9.45
2019-05-11T12:47:21.163Z,9.54
2019-05-11T12:49:39.245Z,9.89
2019-05-11T12:52:08.520Z,9.83
2019-05-11T12:54:38.492Z,9.97
2019-05-11T12:57:08.025Z,9.99
2019-05-11T12:59:38.143Z,9.85
2019-05-11T13:02:08.248Z,9.47
2019-05-11T13:04:38.554Z,9.48
2019-05-11T13:07:08.741Z,9.37
2019-05-11T13:09:38.119Z,9.37
2019-05-11T13:12:08.096Z,9.33
2019-05-11T13:14:38.132Z,9.18
2019-05-11T13:17:07.950Z,8.90
2019-05-11T13:19:38.606Z,8.78
2019-05-11T13:22:08.329Z,8.68
2019-05-11T13:24:38.493Z,8.93
2019-05-11T13:27:08.353Z,8.89
2019-05-11T13:29:38.045Z,8.98
2019-05-11T13:32:07.858Z,9.12
2019-05-11T13:34:38.748Z,9.29
2019-05-11T13:37:08.238Z,9.24
2019-05-11T13:39:37.905Z,9.48
2019-05-11T13:42:08.203Z,9.40
2019-05-11T13:44:38.460Z,9.65
2019-05-11T13:47:08.608Z,9.64
2019-05-11T13:49:38.013Z,9.58
2019-05-11T13:52:08.651Z,9.47
2019-05-11T13:54:37.989Z,9.62
2019-05-11T13:57:09.557Z,9.73
2019-05-11T13:59:38.968Z,9.51
2019-05-11T14:02:10.917Z,9.71
2019-05-11T14:04:39.221Z,9.49
2019-05-11T14:07:08.548Z,9.49
2019-05-11T14:09:38.139Z,9.53
2019-05-11T14:12:07.852Z,9.28
2019-05-11T14:14:37.729Z,9.29
2019-05-11T14:17:08.289Z,9.36
2019-05-11T14:19:38.527Z,9.24
2019-05-11T14:22:08.780Z,9.19
2019-05-11T14:24:38.296Z,9.30
2019-05-11T14:27:08.504Z,9.39
2019-05-11T14:29:38.652Z,9.30
2019-05-11T14:32:08.648Z,9.34
2019-05-11T14:34:38.678Z,9.26
2019-05-11T14:37:08.902Z,9.34
2019-05-11T14:39:38.483Z,9.30
2019-05-11T14:42:07.870Z,9.29
2019-05-11T14:44:37.655Z,9.17
2019-05-11T14:47:08.466Z,9.24
2019-05-11T14:49:38.059Z,9.41
2019-05-11T14:52:08.297Z,9.48
2019-05-11T14:54:38.156Z,9.58
2019-05-11T14:57:08.172Z,9.73
2019-05-11T14:59:37.919Z,9.73
2019-05-11T15:02:24.860Z,9.88
2019-05-11T15:04:54.031Z,9.80
2019-05-11T15:07:23.227Z,9.87
2019-05-11T15:09:52.513Z,9.88
2019-05-11T15:12:21.792Z,9.88
2019-05-11T15:14:51.078Z,10.01
2019-05-11T15:17:20.227Z,10.11
2019-05-11T15:19:49.405Z,10.33
2019-05-11T15:22:18.659Z,11.03
2019-05-11T15:24:48.446Z,11.11
2019-05-11T15:27:18.484Z,11.18
2019-05-11T15:29:48.333Z,11.47
2019-05-11T15:32:18.060Z,11.82
2019-05-11T15:34:48.783Z,11.92
2019-05-11T15:37:18.149Z,12.02
2019-05-11T15:39:48.393Z,11.65
2019-05-11T15:42:19.898Z,11.54
2019-05-11T15:44:49.067Z,11.62
2019-05-11T15:47:18.337Z,11.72
2019-05-11T15:49:48.474Z,11.66
2019-05-11T15:52:18.878Z,11.88
2019-05-11T15:54:48.418Z,11.77
2019-05-11T15:57:17.988Z,12.02
2019-05-11T15:59:48.194Z,12.19
2019-05-11T16:02:18.037Z,12.19
2019-05-11T16:04:49.283Z,12.09
2019-05-11T16:07:18.891Z,11.76
2019-05-11T16:09:48.789Z,12.19
2019-05-11T16:12:18.333Z,12.11
2019-05-11T16:14:48.541Z,12.37
2019-05-11T16:17:17.861Z,12.54
2019-05-11T16:19:49.048Z,12.56
2019-05-11T16:22:21.092Z,12.35
2019-05-11T16:24:49.057Z,12.47
2019-05-11T16:27:18.477Z,12.27
2019-05-11T16:29:47.995Z,12.48
2019-05-11T16:32:17.436Z,12.61
2019-05-11T16:34:46.824Z,12.02
2019-05-11T16:37:18.398Z,11.58
2019-05-11T16:39:49.391Z,11.34
2019-05-11T16:42:18.200Z,11.39
2019-05-11T16:44:48.287Z,12.05
2019-05-11T16:47:18.165Z,12.20
2019-05-11T16:49:47.595Z,12.53
2019-05-11T16:52:18.350Z,12.50
2019-05-11T16:54:47.876Z,12.30
2019-05-11T16:57:17.662Z,11.78
2019-05-11T16:59:48.374Z,11.62
2019-05-11T17:02:18.745Z,11.65
2019-05-11T17:04:48.412Z,11.79
2019-05-11T17:07:17.704Z,11.50
2019-05-11T17:09:48.300Z,11.19
2019-05-11T17:12:18.137Z,10.92
2019-05-11T17:15:00.121Z,10.64
2019-05-11T17:17:29.492Z,10.46
2019-05-11T17:19:59.857Z,10.35
2019-05-11T17:22:29.027Z,10.07
2019-05-11T17:24:58.936Z,10.02
2019-05-11T17:27:28.702Z,9.96
2019-05-11T17:29:59.306Z,9.98
2019-05-11T17:32:29.551Z,10.04
2019-05-11T17:34:58.771Z,10.20
2019-05-11T17:37:28.539Z,10.33
2019-05-11T17:39:58.667Z,10.49
2019-05-11T17:42:28.093Z,10.41
2019-05-11T17:44:58.908Z,10.46
2019-05-11T17:47:28.337Z,10.42
2019-05-11T17:50:03.474Z,10.27
2019-05-11T17:52:28.598Z,10.36
2019-05-11T17:54:57.989Z,10.13
2019-05-11T17:57:27.770Z,9.98
2019-05-11T17:59:57.905Z,10.16
2019-05-11T18:02:28.903Z,10.03
2019-05-11T18:04:58.545Z,9.83
2019-05-11T18:07:30.834Z,9.61
2019-05-11T18:09:58.825Z,9.45
2019-05-11T18:12:28.525Z,9.37
2019-05-11T18:14:58.566Z,9.37
2019-05-11T18:17:27.937Z,9.22
2019-05-11T18:20:06.594Z,9.15
2019-05-11T18:22:28.592Z,9.01
2019-05-11T18:24:58.168Z,8.94
2019-05-11T18:27:27.807Z,8.77
2019-05-11T18:29:58.059Z,8.70
2019-05-11T18:32:28.386Z,8.71
2019-05-11T18:34:58.972Z,8.54
2019-05-11T18:37:28.480Z,8.47
2019-05-11T18:39:58.511Z,8.32
2019-05-11T18:42:27.897Z,8.22
2019-05-11T18:44:59.965Z,8.23
2019-05-11T18:47:29.982Z,8.23
2019-05-11T18:49:59.263Z,8.13
2019-05-11T18:52:28.584Z,8.08
2019-05-11T18:54:57.938Z,8.13
2019-05-11T18:57:27.827Z,8.15
2019-05-11T18:59:58.757Z,8.23
2019-05-11T19:02:28.218Z,8.04
2019-05-11T19:04:58.173Z,7.82
2019-05-11T19:07:28.424Z,7.54
2019-05-11T19:09:57.887Z,7.29
2019-05-11T19:12:28.008Z,7.08
2019-05-11T19:14:58.715Z,6.99
2019-05-11T19:17:29.047Z,7.01
2019-05-11T19:19:58.705Z,7.19
2019-05-11T19:22:29.005Z,7.30
2019-05-11T19:24:58.376Z,7.44
2019-05-11T19:27:28.815Z,7.54
2019-05-11T19:29:58.145Z,7.56
2019-05-11T19:32:28.235Z,7.60
2019-05-11T19:34:58.094Z,7.59
2019-05-11T19:37:28.080Z,7.63
2019-05-11T19:39:57.974Z,7.54
2019-05-11T19:42:28.481Z,7.59
2019-05-11T19:44:57.953Z,7.53
2019-05-11T19:47:28.278Z,7.48
2019-05-11T19:49:58.262Z,7.46
2019-05-11T19:52:28.274Z,7.37
2019-05-11T19:54:57.837Z,7.30
2019-05-11T19:57:28.299Z,7.23
2019-05-11T19:59:58.357Z,7.06
2019-05-11T20:02:28.359Z,7.00
2019-05-11T20:04:58.532Z,6.95
2019-05-11T20:07:28.162Z,6.90
2019-05-11T20:09:57.497Z,6.91
2019-05-11T20:12:28.351Z,6.90
2019-05-11T20:14:58.633Z,6.74
2019-05-11T20:17:28.810Z,6.69
2019-05-11T20:20:01.019Z,6.48
2019-05-11T20:22:29.233Z,6.30
2019-05-11T20:24:58.535Z,6.22
2019-05-11T20:27:28.333Z,6.16
2019-05-11T20:29:58.063Z,6.12
2019-05-11T20:32:28.428Z,6.04
2019-05-11T20:34:58.056Z,6.04
2019-05-11T20:37:28.771Z,5.96
2019-05-11T20:39:58.588Z,6.01
2019-05-11T20:42:28.097Z,6.12
2019-05-11T20:44:58.623Z,6.14
2019-05-11T20:47:28.751Z,6.13
2019-05-11T20:49:58.709Z,6.17
2019-05-11T20:52:28.473Z,6.20
2019-05-11T20:54:58.386Z,6.19
2019-05-11T20:57:28.554Z,6.11
2019-05-11T20:59:57.713Z,6.00
2019-05-11T21:02:28.788Z,5.87
2019-05-11T21:04:58.723Z,5.81
2019-05-11T21:07:28.307Z,5.66
2019-05-11T21:09:57.849Z,5.50
2019-05-11T21:12:28.857Z,5.38
2019-05-11T21:14:58.532Z,5.18
2019-05-11T21:17:27.912Z,5.00
2019-05-11T21:19:57.447Z,4.95
2019-05-11T21:22:26.587Z,4.73
2019-05-11T21:24:58.083Z,4.77
2019-05-11T21:27:28.662Z,4.70
2019-05-11T21:29:58.359Z,4.86
2019-05-11T21:32:27.952Z,4.95
2019-05-11T21:34:58.423Z,5.05
2019-05-11T21:37:28.022Z,5.16
2019-05-11T21:39:57.865Z,5.25
2019-05-11T21:42:27.962Z,5.31
2019-05-11T21:44:58.079Z,5.40
2019-05-11T21:47:28.945Z,5.38
2019-05-11T21:49:58.444Z,5.48
2019-05-11T21:52:28.733Z,5.57
2019-05-11T21:54:58.403Z,5.63
2019-05-11T21:57:27.975Z,5.64
2019-05-11T21:59:57.429Z,5.70
2019-05-11T22:02:28.763Z,5.76
2019-05-11T22:04:58.659Z,5.69
2019-05-11T22:07:28.019Z,5.68
2019-05-11T22:09:59.849Z,5.71
2019-05-11T22:12:28.463Z,5.65
2019-05-11T22:14:58.007Z,5.63
2019-05-11T22:17:27.959Z,5.55
2019-05-11T22:19:58.626Z,5.38
2019-05-11T22:22:28.719Z,5.36
2019-05-11T22:24:58.549Z,5.21
2019-05-11T22:27:27.912Z,5.02
2019-05-11T22:29:58.928Z,4.91
2019-05-11T22:32:28.603Z,4.82
2019-05-11T22:34:58.297Z,4.66
2019-05-11T22:37:27.857Z,4.72
2019-05-11T22:39:57.798Z,4.79
2019-05-11T22:42:28.107Z,4.82
2019-05-11T22:44:57.599Z,4.99
2019-05-11T22:47:28.409Z,5.14
2019-05-11T22:49:58.298Z,5.51
2019-05-11T22:52:36.214Z,5.48
2019-05-11T22:54:59.075Z,5.47
2019-05-11T22:57:28.359Z,5.42
2019-05-11T23:02:54.161Z,5.26
2019-05-11T23:05:23.575Z,5.11
2019-05-11T23:07:52.847Z,5.29
2019-05-11T23:10:22.125Z,5.14
2019-05-11T23:12:51.256Z,5.20
2019-05-11T23:15:20.446Z,5.12
2019-05-11T23:17:49.731Z,5.04
2019-05-11T23:20:19.296Z,5.02
2019-05-11T23:22:56.918Z,5.09
2019-05-11T23:25:19.905Z,5.08
2019-05-11T23:27:49.333Z,5.08
2019-05-11T23:30:20.257Z,5.09
2019-05-11T23:32:50.123Z,5.15
2019-05-11T23:35:19.411Z,5.06
2019-05-11T23:37:49.818Z,4.91
2019-05-11T23:40:21.142Z,4.96
2019-05-11T23:42:50.529Z,4.82
2019-05-11T23:45:19.735Z,4.75
2019-05-11T23:47:49.317Z,4.63
2019-05-11T23:50:19.511Z,4.47
2019-05-11T23:53:04.176Z,4.44
2019-05-11T23:55:20.146Z,4.31
2019-05-11T23:57:49.736Z,4.29
